Time;durP1;ratioP1;P1;durP2;ratioP2;P2;SDS_P1;SDS_P2;PMS_P1;PMS_P2;Temp;Humidity;BMP_temperature;BMP_pressure;BME280_temperature;BME280_humidity;BME280_pressure;Samples;Min_cycle;Max_cycle;Signal;HPM_P1;HPM_P2
2021/01/29 00:00:31;;;;;;;26.83;12.30;;;-2.10;99.90;;;;;;4172685;28;20832;-52
2021/01/29 00:02:32;;;;;;;28.03;12.00;;;-2.10;99.90;;;;;;4172504;28;20738;-48
2021/01/29 00:04:33;;;;;;;26.77;11.57;;;-2.10;99.90;;;;;;4172639;28;20328;-45
2021/01/29 00:06:34;;;;;;;25.83;12.37;;;-2.20;99.90;;;;;;4172357;28;20262;-48
2021/01/29 00:08:35;;;;;;;23.23;12.23;;;-2.20;99.90;;;;;;4172450;28;20327;-45
2021/01/29 00:10:38;;;;;;;26.63;13.10;;;-2.20;99.90;;;;;;4172708;28;20673;-46
2021/01/29 00:12:39;;;;;;;27.33;11.53;;;-2.20;99.90;;;;;;4171674;28;20250;-43
2021/01/29 00:14:40;;;;;;;24.17;12.30;;;-2.10;99.90;;;;;;4173263;28;20317;-44
2021/01/29 00:16:42;;;;;;;28.37;13.17;;;-2.10;99.90;;;;;;4171570;28;20835;-44
2021/01/29 00:18:43;;;;;;;23.93;11.87;;;-2.20;99.90;;;;;;4173230;28;20266;-43
2021/01/29 00:20:44;;;;;;;27.47;13.20;;;-2.20;99.90;;;;;;4171787;28;20255;-45
2021/01/29 00:22:46;;;;;;;24.23;12.00;;;-2.20;99.90;;;;;;4173366;28;20319;-41
2021/01/29 00:24:47;;;;;;;26.00;12.43;;;-2.20;99.90;;;;;;4171790;28;20296;-44
2021/01/29 00:26:48;;;;;;;26.13;12.20;;;-2.10;99.90;;;;;;4173224;28;20258;-41
2021/01/29 00:28:50;;;;;;;23.17;11.37;;;-2.20;99.90;;;;;;4171107;28;20843;-46
2021/01/29 00:30:52;;;;;;;21.67;11.80;;;-2.10;99.90;;;;;;4173535;28;20275;-46
2021/01/29 00:32:53;;;;;;;27.50;11.90;;;-2.10;99.90;;;;;;4171601;28;20776;-41
2021/01/29 00:34:54;;;;;;;25.93;11.90;;;-2.20;99.90;;;;;;4172489;28;20736;-46
2021/01/29 00:36:56;;;;;;;24.03;11.57;;;-2.10;99.90;;;;;;4172202;28;20292;-45
2021/01/29 00:38:57;;;;;;;25.40;12.37;;;-2.10;99.90;;;;;;4171962;28;20292;-42
2021/01/29 00:40:58;;;;;;;27.40;12.03;;;-2.20;99.90;;;;;;4172326;28;20336;-44
2021/01/29 00:43:02;;;;;;;22.30;12.00;;;-2.20;99.90;;;;;;4173073;28;20692;-44
2021/01/29 00:45:06;;;;;;;22.27;12.07;;;-2.20;99.90;;;;;;4174222;28;20332;-51
2021/01/29 00:47:07;;;;;;;22.23;11.50;;;-2.20;99.90;;;;;;4173840;28;20332;-41
2021/01/29 00:49:08;;;;;;;29.20;12.63;;;-2.20;99.90;;;;;;4176116;28;20851;-42
2021/01/29 00:51:10;;;;;;;28.03;12.33;;;-2.20;99.90;;;;;;4174437;28;20316;-41
2021/01/29 00:53:11;;;;;;;28.07;11.53;;;-2.20;99.90;;;;;;4176195;28;20324;-41
2021/01/29 00:55:15;;;;;;;23.90;12.20;;;-2.30;99.90;;;;;;4174206;28;20702;-53
2021/01/29 00:57:16;;;;;;;28.63;13.43;;;-2.20;99.90;;;;;;4175766;28;20708;-43
2021/01/29 00:59:17;;;;;;;26.67;12.77;;;-2.30;99.90;;;;;;4174270;28;20771;-47
2021/01/29 01:01:18;;;;;;;28.93;13.20;;;-2.20;99.90;;;;;;4175656;28;20351;-46
2021/01/29 01:03:20;;;;;;;24.77;12.47;;;-2.30;99.90;;;;;;4174481;28;20725;-43
2021/01/29 01:05:25;;;;;;;27.13;12.57;;;-2.30;99.90;;;;;;4175935;28;20300;-44
2021/01/29 01:07:27;;;;;;;25.33;12.37;;;-2.30;99.90;;;;;;4174643;28;20828;-48
2021/01/29 01:09:28;;;;;;;23.97;12.23;;;-2.30;99.90;;;;;;4175378;28;20273;-42
2021/01/29 01:11:29;;;;;;;26.63;11.87;;;-2.30;99.90;;;;;;4174735;28;20270;-43
2021/01/29 01:13:31;;;;;;;28.77;13.93;;;-2.30;99.90;;;;;;4174991;28;20352;-46
2021/01/29 01:15:32;;;;;;;26.97;12.90;;;-2.30;99.90;;;;;;4174481;28;20302;-47
2021/01/29 01:17:33;;;;;;;34.63;14.30;;;-2.30;99.90;;;;;;4172359;28;20254;-42
2021/01/29 01:19:35;;;;;;;27.37;12.70;;;-2.40;99.90;;;;;;4175459;28;20258;-49
2021/01/29 01:21:37;;;;;;;23.80;11.67;;;-2.40;99.90;;;;;;4174094;28;20262;-40
2021/01/29 01:23:38;;;;;;;28.00;12.13;;;-2.40;99.90;;;;;;4175039;28;20270;-42
2021/01/29 01:25:39;;;;;;;28.23;13.45;;;-2.40;99.90;;;;;;4174422;28;20320;-41
2021/01/29 01:27:42;;;;;;;31.55;14.60;;;-2.50;99.90;;;;;;4175370;28;20086;-44
2021/01/29 01:29:44;;;;;;;26.90;12.50;;;-2.50;99.90;;;;;;4174203;28;20440;-45
2021/01/29 01:31:45;;;;;;;29.33;13.37;;;-2.50;99.90;;;;;;4175527;28;20857;-41
2021/01/29 01:33:46;;;;;;;29.75;13.50;;;-2.50;99.90;;;;;;4174077;28;20654;-48
2021/01/29 01:35:47;;;;;;;31.55;13.13;;;-2.50;99.90;;;;;;4174959;28;20048;-43
2021/01/29 01:37:49;;;;;;;28.50;12.87;;;-2.50;99.90;;;;;;4173924;28;20432;-47
2021/01/29 01:39:50;;;;;;;30.93;13.53;;;-2.50;99.90;;;;;;4174888;28;20328;-44
2021/01/29 01:41:54;;;;;;;28.20;13.23;;;-2.50;99.90;;;;;;4174315;28;20266;-41
2021/01/29 01:44:18;;;;;;;25.53;12.43;;;-2.50;99.90;;;;;;4174120;28;20297;-47
2021/01/29 01:46:21;;;;;;;29.90;13.50;;;-2.50;99.90;;;;;;4173889;28;20258;-43
2021/01/29 01:48:42;;;;;;;29.38;15.02;;;-2.60;99.90;;;;;;4174324;28;20343;-48
2021/01/29 01:50:47;;;;;;;30.47;14.00;;;-2.60;99.90;;;;;;4173802;28;20053;-46
2021/01/29 01:52:50;;;;;;;28.07;13.37;;;-2.60;99.90;;;;;;4174718;28;20278;-41
2021/01/29 01:55:27;;;;;;;32.53;15.07;;;-2.60;99.90;;;;;;4173343;28;20654;-46
2021/01/29 01:57:31;;;;;;;31.70;14.40;;;-2.60;99.90;;;;;;4175084;28;20266;-42
2021/01/29 01:59:42;;;;;;;28.73;14.32;;;-2.60;99.90;;;;;;4173520;28;20090;-42
2021/01/29 02:01:44;;;;;;;28.63;13.45;;;-2.60;99.90;;;;;;4174861;28;20768;-42
2021/01/29 02:03:45;;;;;;;35.33;14.67;;;-2.60;99.90;;;;;;4172967;28;20037;-48
2021/01/29 02:05:47;;;;;;;32.42;14.80;;;-2.60;99.90;;;;;;4174448;28;20270;-43
2021/01/29 02:07:51;;;;;;;35.80;15.07;;;-2.60;99.90;;;;;;4173953;28;20021;-42
2021/01/29 02:09:54;;;;;;;30.50;14.00;;;-2.60;99.90;;;;;;4174117;28;20270;-48
2021/01/29 02:11:55;;;;;;;25.83;13.83;;;-2.60;99.90;;;;;;4173686;28;20331;-42
2021/01/29 02:13:56;;;;;;;28.70;13.20;;;-2.50;99.90;;;;;;4173752;28;20336;-51
2021/01/29 02:16:11;;;;;;;32.90;15.00;;;-2.60;99.90;;;;;;4174377;28;20045;-47
2021/01/29 02:18:40;;;;;;;33.13;15.07;;;-2.60;99.90;;;;;;4173458;28;20834;-46
2021/01/29 02:21:16;;;;;;;29.60;14.13;;;-2.50;99.90;;;;;;4173463;28;20126;-43
2021/01/29 02:23:39;;;;;;;33.40;15.27;;;-2.60;99.90;;;;;;4171172;28;20094;-41
2021/01/29 02:25:59;;;;;;;28.77;14.37;;;-2.60;99.90;;;;;;4172826;28;20312;-43
2021/01/29 02:28:02;;;;;;;31.67;14.60;;;-2.60;99.90;;;;;;4173277;28;20278;-44
2021/01/29 02:30:32;;;;;;;35.00;15.43;;;-2.60;99.90;;;;;;4172586;28;20035;-47
2021/01/29 02:32:58;;;;;;;26.40;13.68;;;-2.60;99.90;;;;;;4174779;28;20041;-45
2021/01/29 02:35:38;;;;;;;34.83;15.07;;;-2.60;99.90;;;;;;4173009;28;20053;-44
2021/01/29 02:38:06;;;;;;;32.30;15.07;;;-2.60;99.90;;;;;;4152140;28;20332;-45
2021/01/29 02:40:54;;;;;;;33.37;15.07;;;-2.60;99.90;;;;;;4174199;28;20282;-46
2021/01/29 02:43:14;;;;;;;35.87;15.67;;;-2.60;99.90;;;;;;4137389;28;20925;-50
2021/01/29 02:45:27;;;;;;;32.00;15.47;;;-2.70;99.90;;;;;;4166316;28;20766;-48
2021/01/29 02:47:35;;;;;;;32.00;15.73;;;-2.70;99.90;;;;;;4172890;28;20408;-44
2021/01/29 02:50:09;;;;;;;37.97;17.92;;;-2.70;99.90;;;;;;4173910;28;21123;-53
2021/01/29 02:52:21;;;;;;;37.53;16.60;;;-2.70;99.90;;;;;;4172365;28;20906;-48
2021/01/29 02:54:28;;;;;;;40.30;17.55;;;-2.70;99.90;;;;;;4174233;28;20087;-48
2021/01/29 02:56:29;;;;;;;39.00;17.25;;;-2.80;99.90;;;;;;4172789;28;20103;-47
2021/01/29 02:58:39;;;;;;;37.33;16.98;;;-2.70;99.90;;;;;;4174460;28;20477;-49
2021/01/29 03:00:50;;;;;;;43.13;17.90;;;-2.70;99.90;;;;;;4172501;28;20567;-44
2021/01/29 03:02:55;;;;;;;;;;;-2.70;99.90;;;;;;4175169;28;20033;-43
2021/01/29 03:05:18;;;;;;;34.83;16.13;;;-2.70;99.90;;;;;;4171562;28;19909;-46
2021/01/29 03:07:32;;;;;;;36.43;15.17;;;-2.70;99.90;;;;;;4173682;28;20270;-43
2021/01/29 03:09:41;;;;;;;36.90;16.38;;;-2.70;99.90;;;;;;4172330;28;20323;-44
2021/01/29 03:12:08;;;;;;;33.47;16.13;;;-2.70;99.90;;;;;;4173698;28;20379;-46
2021/01/29 03:14:17;;;;;;;34.90;15.57;;;-2.70;99.90;;;;;;4172276;28;20049;-43
2021/01/29 03:16:34;;;;;;;42.27;16.03;;;-2.70;99.90;;;;;;4173502;28;20045;-48
2021/01/29 03:18:52;;;;;;;36.22;16.88;;;-2.70;99.90;;;;;;4172714;28;20270;-41
2021/01/29 03:21:02;;;;;;;30.85;13.90;;;-2.70;99.90;;;;;;4172925;28;20027;-48
2021/01/29 03:23:09;;;;;;;32.25;15.63;;;-2.60;99.90;;;;;;4172282;28;20477;-45
2021/01/29 03:25:37;;;;;;;38.53;17.30;;;-2.60;99.90;;;;;;4172979;28;20485;-49
2021/01/29 03:27:43;;;;;;;34.70;16.40;;;-2.70;99.90;;;;;;4172770;28;20118;-45
2021/01/29 03:29:48;;;;;;;37.75;16.10;;;-2.60;99.90;;;;;;4172945;28;20816;-46
2021/01/29 03:31:55;;;;;;;36.08;16.33;;;-2.60;99.90;;;;;;4172434;28;20449;-48
2021/01/29 03:34:06;;;;;;;33.88;16.40;;;-2.60;99.90;;;;;;4172825;28;20630;-42
2021/01/29 03:36:10;;;;;;;;;;;-2.60;99.90;;;;;;4172711;28;20611;-55
2021/01/29 03:38:22;;;;;;;32.05;14.38;;;-2.50;99.90;;;;;;4172720;28;19909;-45
2021/01/29 03:40:25;;;;;;;33.38;15.55;;;-2.50;99.90;;;;;;4171962;28;20471;-47
2021/01/29 03:42:53;;;;;;;32.53;14.98;;;-2.60;99.90;;;;;;4173554;28;20553;-47
2021/01/29 03:45:13;;;;;;;34.75;15.95;;;-2.50;99.90;;;;;;4172137;28;20041;-53
2021/01/29 03:47:36;;;;;;;31.55;14.82;;;-2.50;99.90;;;;;;4172679;28;20087;-40
2021/01/29 03:49:44;;;;;;;37.30;15.73;;;-2.50;99.90;;;;;;4173174;28;20095;-45
2021/01/29 03:52:06;;;;;;;35.17;15.90;;;-2.50;99.90;;;;;;4171978;28;20033;-44
2021/01/29 03:54:24;;;;;;;32.90;14.35;;;-2.50;99.90;;;;;;4173538;28;20527;-49
2021/01/29 03:56:53;;;;;;;32.80;15.23;;;-2.50;99.90;;;;;;4171655;28;20041;-46
2021/01/29 03:59:15;;;;;;;33.53;14.18;;;-2.50;99.90;;;;;;4173064;28;20328;-42
2021/01/29 04:01:41;;;;;;;32.53;14.50;;;-2.50;99.90;;;;;;4171148;28;20071;-42
2021/01/29 04:04:24;;;;;;;33.25;15.10;;;-2.40;99.90;;;;;;4173213;28;21045;-44
2021/01/29 04:06:31;;;;;;;29.30;13.77;;;-2.40;99.90;;;;;;4165652;28;20044;-41
2021/01/29 04:08:59;;;;;;;33.73;15.23;;;-2.40;99.90;;;;;;4173023;28;20040;-41
2021/01/29 04:11:03;;;;;;;32.55;14.82;;;-2.40;99.90;;;;;;4172105;28;20312;-46
2021/01/29 04:13:13;;;;;;;30.27;15.20;;;-2.40;99.90;;;;;;4155774;28;20099;-44
2021/01/29 04:15:29;;;;;;;30.70;14.85;;;-2.40;99.90;;;;;;4155759;28;21140;-42
2021/01/29 04:17:41;;;;;;;28.13;12.63;;;-2.40;99.90;;;;;;4158138;28;20091;-45
2021/01/29 04:19:46;;;;;;;25.97;13.57;;;-2.40;99.90;;;;;;4159334;28;20743;-49
2021/01/29 04:22:00;;;;;;;31.57;14.80;;;-2.40;99.90;;;;;;4159106;28;20275;-43
2021/01/29 04:24:04;;;;;;;28.63;14.20;;;-2.40;99.90;;;;;;4159374;28;20340;-41
2021/01/29 04:26:19;;;;;;;28.33;13.17;;;-2.40;99.90;;;;;;4158873;28;20271;-41
2021/01/29 04:28:21;;;;;;;26.37;12.43;;;-2.40;99.90;;;;;;4159231;28;20321;-47
2021/01/29 04:30:27;;;;;;;28.13;12.87;;;-2.40;99.90;;;;;;4161511;28;20344;-41
2021/01/29 04:32:36;;;;;;;28.10;14.07;;;-2.40;99.90;;;;;;4175246;28;20282;-48
2021/01/29 04:34:40;;;;;;;27.40;13.40;;;-2.40;99.90;;;;;;4175473;28;20319;-45
2021/01/29 04:36:43;;;;;;;28.90;14.20;;;-2.30;99.90;;;;;;4175051;28;20298;-43
2021/01/29 04:38:49;;;;;;;27.65;13.13;;;-2.30;99.90;;;;;;4175680;28;20727;-49
2021/01/29 04:41:03;;;;;;;25.07;12.53;;;-2.30;99.90;;;;;;4174635;28;20091;-44
2021/01/29 04:43:18;;;;;;;25.63;12.53;;;-2.30;99.90;;;;;;4175530;28;20335;-44
2021/01/29 04:46:07;;;;;;;27.07;11.70;;;-2.30;99.90;;;;;;4174296;28;20315;-47
2021/01/29 04:48:16;;;;;;;28.60;11.97;;;-2.30;99.90;;;;;;4142317;28;20691;-42
2021/01/29 04:50:32;;;;;;;29.20;13.97;;;-2.20;99.90;;;;;;4175620;28;20274;-48
2021/01/29 04:52:45;;;;;;;27.83;13.60;;;-2.20;99.90;;;;;;4174713;28;20364;-45
2021/01/29 04:54:46;;;;;;;29.47;12.53;;;-2.20;99.90;;;;;;4175747;28;20566;-44
2021/01/29 04:57:09;;;;;;;31.93;13.27;;;-2.20;99.90;;;;;;4174450;28;20340;-48
2021/01/29 04:59:31;;;;;;;25.63;12.43;;;-2.20;99.90;;;;;;4175731;28;20391;-44
2021/01/29 05:01:51;;;;;;;27.10;13.33;;;-2.20;99.90;;;;;;4173056;28;20328;-43
2021/01/29 05:04:23;;;;;;;25.57;12.97;;;-2.20;99.90;;;;;;4175668;28;20266;-41
2021/01/29 05:06:50;;;;;;;28.37;13.73;;;-2.20;99.90;;;;;;4174002;28;20274;-45
2021/01/29 05:09:20;;;;;;;28.27;12.40;;;-2.20;99.90;;;;;;4175430;28;20290;-43
2021/01/29 05:11:59;;;;;;;29.40;11.70;;;-2.20;99.90;;;;;;4174948;28;20274;-48
2021/01/29 05:14:21;;;;;;;27.67;12.83;;;-2.20;99.90;;;;;;4174279;28;20262;-49
2021/01/29 05:16:40;;;;;;;24.13;11.17;;;-2.10;99.90;;;;;;4175275;28;20297;-47
2021/01/29 05:18:48;;;;;;;26.87;12.43;;;-2.10;99.90;;;;;;4174199;28;20332;-43
2021/01/29 05:21:07;;;;;;;27.40;12.70;;;-2.20;99.90;;;;;;4175543;28;20286;-42
2021/01/29 05:23:37;;;;;;;31.67;12.77;;;-2.10;99.90;;;;;;4173753;28;20274;-46
2021/01/29 05:25:57;;;;;;;24.98;11.50;;;-2.10;99.90;;;;;;4140067;28;20283;-45
2021/01/29 05:28:10;;;;;;;29.13;13.50;;;-2.10;99.90;;;;;;4173455;28;20540;-55
2021/01/29 05:30:26;;;;;;;29.47;12.73;;;-2.10;99.90;;;;;;4175654;28;20315;-43
2021/01/29 05:32:36;;;;;;;28.47;12.90;;;-2.10;99.90;;;;;;4173991;28;20364;-46
2021/01/29 05:34:40;;;;;;;27.55;12.48;;;-2.00;99.90;;;;;;4175054;28;20274;-47
2021/01/29 05:36:45;;;;;;;25.97;13.30;;;-2.00;99.90;;;;;;4173011;28;20126;-44
2021/01/29 05:38:54;;;;;;;25.50;12.83;;;-1.80;99.90;;;;;;4175356;28;20278;-46
2021/01/29 05:41:33;;;;;;;29.27;11.83;;;-1.90;99.90;;;;;;4173521;28;20328;-47
2021/01/29 05:43:45;;;;;;;25.10;13.30;;;-1.90;99.90;;;;;;4174830;28;20343;-46
2021/01/29 05:46:08;;;;;;;26.80;12.83;;;-1.90;99.90;;;;;;4174063;28;20286;-45
2021/01/29 05:48:26;;;;;;;24.52;12.38;;;-1.90;99.90;;;;;;4173704;28;20673;-45
2021/01/29 05:50:52;;;;;;;30.73;14.50;;;-1.90;99.90;;;;;;4173461;28;20563;-43
2021/01/29 05:53:21;;;;;;;23.77;12.47;;;-1.90;99.90;;;;;;4173117;28;20355;-47
2021/01/29 05:55:57;;;;;;;27.67;12.40;;;-1.90;99.90;;;;;;4174422;28;20270;-44
2021/01/29 05:58:32;;;;;;;28.73;12.00;;;-2.00;99.90;;;;;;4172820;28;20278;-45
2021/01/29 06:00:59;;;;;;;28.20;13.73;;;-2.00;99.90;;;;;;4172003;28;20747;-45
2021/01/29 06:03:43;;;;;;;25.87;11.97;;;-2.00;99.90;;;;;;4173316;28;20340;-40
2021/01/29 06:05:51;;;;;;;24.33;12.30;;;-2.00;99.90;;;;;;4170584;28;20278;-43
2021/01/29 06:08:04;;;;;;;29.13;13.00;;;-2.00;99.90;;;;;;4173570;28;20270;-50
2021/01/29 06:10:11;;;;;;;26.77;12.43;;;-2.00;99.90;;;;;;4173123;28;20270;-44
2021/01/29 06:12:33;;;;;;;26.43;13.03;;;-2.00;99.90;;;;;;4173393;28;20266;-45
2021/01/29 06:15:02;;;;;;;27.43;13.50;;;-2.00;99.90;;;;;;4172911;28;20262;-43
2021/01/29 06:17:18;;;;;;;32.63;15.13;;;-2.00;99.90;;;;;;4174681;28;20352;-42
2021/01/29 06:19:44;;;;;;;31.73;14.60;;;-2.00;99.90;;;;;;4172942;28;20320;-48
2021/01/29 06:22:00;;;;;;;29.27;14.37;;;-1.90;99.90;;;;;;4174028;28;20759;-49
2021/01/29 06:24:40;;;;;;;34.60;16.03;;;-1.90;99.90;;;;;;4172870;28;20336;-49
2021/01/29 06:27:08;;;;;;;38.97;16.02;;;-1.90;99.90;;;;;;4174137;28;21114;-50
2021/01/29 06:29:29;;;;;;;36.40;14.90;;;-1.80;99.90;;;;;;4172662;28;20063;-45
2021/01/29 06:31:51;;;;;;;34.50;16.58;;;-1.80;99.90;;;;;;4173191;28;20258;-47
2021/01/29 06:34:10;;;;;;;32.30;15.37;;;-1.80;99.90;;;;;;4172135;28;20049;-47
2021/01/29 06:36:26;;;;;;;26.67;13.10;;;-1.80;99.90;;;;;;4172086;28;20294;-46
2021/01/29 06:38:41;;;;;;;31.03;14.80;;;-1.80;99.90;;;;;;4174212;28;20344;-50
2021/01/29 06:41:04;;;;;;;30.90;15.53;;;-1.80;99.90;;;;;;4171926;28;20259;-48
2021/01/29 06:43:14;;;;;;;35.13;16.73;;;-1.70;99.90;;;;;;4174503;28;20324;-48
2021/01/29 06:45:24;;;;;;;34.60;16.23;;;-1.70;99.90;;;;;;4172028;28;20270;-48
2021/01/29 06:47:49;;;;;;;32.33;15.13;;;-1.70;99.90;;;;;;4174062;28;20745;-45
2021/01/29 06:49:59;;;;;;;34.90;15.63;;;-1.70;99.90;;;;;;4172413;28;20053;-43
2021/01/29 06:52:20;;;;;;;35.03;16.17;;;-1.70;99.90;;;;;;4173580;28;20274;-50
2021/01/29 06:54:36;;;;;;;;;;;-1.60;99.90;;;;;;4172990;28;21179;-48
2021/01/29 06:57:02;;;;;;;27.43;13.00;;;-1.60;99.90;;;;;;4173819;28;19958;-47
2021/01/29 06:59:15;;;;;;;24.53;11.60;;;-1.60;99.90;;;;;;4172287;28;20270;-47
2021/01/29 07:01:43;;;;;;;25.87;12.57;;;-1.60;99.90;;;;;;4173808;28;20274;-45
2021/01/29 07:03:55;;;;;;;27.57;13.80;;;-1.60;99.90;;;;;;4172999;28;20671;-53
2021/01/29 07:06:34;;;;;;;25.90;12.57;;;-1.60;99.90;;;;;;4173253;28;20999;-50
2021/01/29 07:09:15;;;;;;;29.60;14.00;;;-1.60;99.90;;;;;;4173542;28;20266;-46
2021/01/29 07:12:01;;;;;;;31.07;14.87;;;-1.60;99.90;;;;;;4171899;28;21122;-50
2021/01/29 07:14:24;;;;;;;32.27;14.70;;;-1.60;99.90;;;;;;4173650;28;20282;-49
2021/01/29 07:16:31;;;;;;;35.33;15.27;;;-1.50;99.90;;;;;;4171899;28;20340;-46
2021/01/29 07:19:09;;;;;;;33.30;14.60;;;-1.50;99.90;;;;;;4173152;28;20262;-46
2021/01/29 07:21:22;;;;;;;32.97;16.70;;;-1.50;99.90;;;;;;4172274;28;20274;-43
2021/01/29 07:23:23;;;;;;;31.30;16.17;;;-1.50;99.90;;;;;;4172089;28;20712;-42
2021/01/29 07:26:16;;;;;;;30.97;15.73;;;-1.50;99.90;;;;;;4172203;28;20339;-44
2021/01/29 07:28:38;;;;;;;37.47;14.77;;;-1.40;99.90;;;;;;4153595;28;20335;-44
2021/01/29 07:31:12;;;;;;;32.57;14.07;;;-1.40;99.90;;;;;;4173313;28;20278;-47
2021/01/29 07:33:19;;;;;;;31.80;13.93;;;-1.40;99.90;;;;;;4172015;28;20826;-45
2021/01/29 07:35:51;;;;;;;25.97;12.33;;;-1.40;99.90;;;;;;4173732;28;20708;-45
2021/01/29 07:38:25;;;;;;;25.40;12.47;;;-1.40;99.90;;;;;;4171704;28;20321;-46
2021/01/29 07:40:57;;;;;;;29.20;12.73;;;-1.30;99.90;;;;;;4172706;28;20262;-44
2021/01/29 07:43:17;;;;;;;30.43;13.03;;;-1.20;99.90;;;;;;4172057;28;20837;-45
2021/01/29 07:45:46;;;;;;;31.37;14.63;;;-1.20;99.90;;;;;;4171259;28;20278;-48
2021/01/29 07:48:10;;;;;;;32.53;13.13;;;-1.20;99.90;;;;;;4172170;28;20652;-46
2021/01/29 07:50:26;;;;;;;31.03;14.53;;;-1.20;99.90;;;;;;4149334;28;20392;-44
2021/01/29 07:53:00;;;;;;;26.77;13.13;;;-1.20;99.90;;;;;;4172449;28;20285;-45
2021/01/29 07:55:11;;;;;;;27.80;12.53;;;-1.10;99.90;;;;;;4171267;28;20266;-51
2021/01/29 07:57:58;;;;;;;29.33;13.97;;;-1.20;99.90;;;;;;4173086;28;20294;-48
2021/01/29 08:00:17;;;;;;;27.30;13.53;;;-1.20;99.90;;;;;;4152395;28;20270;-44
2021/01/29 08:02:27;;;;;;;25.83;12.40;;;-1.10;99.90;;;;;;4171868;28;21164;-45
2021/01/29 08:04:52;;;;;;;28.13;13.10;;;-1.10;99.90;;;;;;4172345;28;20674;-47
2021/01/29 08:07:20;;;;;;;26.43;13.07;;;-1.00;99.90;;;;;;4171706;28;20171;-49
2021/01/29 08:09:32;;;;;;;29.30;13.70;;;-1.00;99.90;;;;;;4170698;28;20340;-49
2021/01/29 08:11:38;;;;;;;28.60;13.03;;;-1.00;99.90;;;;;;4171093;28;20607;-46
2021/01/29 08:14:13;;;;;;;22.30;11.17;;;-0.90;99.90;;;;;;4173022;28;20324;-53
2021/01/29 08:16:59;;;;;;;27.50;14.30;;;-0.90;99.90;;;;;;4171151;28;20379;-51
2021/01/29 08:19:16;;;;;;;26.10;11.87;;;-0.90;99.90;;;;;;4173318;28;20836;-46
2021/01/29 08:21:32;;;;;;;25.70;13.13;;;-0.80;99.90;;;;;;4170955;28;20344;-49
2021/01/29 08:23:51;;;;;;;22.73;11.30;;;-0.80;99.90;;;;;;4173050;28;20335;-45
2021/01/29 08:26:11;;;;;;;25.23;11.77;;;-0.80;99.90;;;;;;4171752;28;20878;-49
2021/01/29 08:28:30;;;;;;;26.33;12.77;;;-0.60;99.90;;;;;;4171929;28;20392;-48
2021/01/29 08:30:49;;;;;;;27.37;13.60;;;-0.50;99.90;;;;;;4172126;28;20045;-54
2021/01/29 08:32:59;;;;;;;27.03;13.97;;;-0.50;99.90;;;;;;4171519;28;20258;-45
2021/01/29 08:35:06;;;;;;;27.07;13.67;;;-0.50;99.90;;;;;;4172027;28;20681;-48
2021/01/29 08:37:28;;;;;;;30.03;14.43;;;-0.40;99.90;;;;;;4171092;28;20306;-48
2021/01/29 08:39:38;;;;;;;25.00;12.37;;;-0.30;99.90;;;;;;4172499;28;20340;-48
2021/01/29 08:41:55;;;;;;;27.13;13.50;;;-0.30;99.90;;;;;;4170628;28;20274;-44
2021/01/29 08:44:24;;;;;;;27.30;12.57;;;-0.10;99.90;;;;;;4172201;28;20833;-47
2021/01/29 08:46:25;;;;;;;26.33;12.37;;;-0.10;99.90;;;;;;4170613;28;20274;-48
2021/01/29 08:48:32;;;;;;;26.17;12.70;;;-0.10;99.90;;;;;;4172277;28;20262;-44
2021/01/29 08:51:08;;;;;;;24.13;12.93;;;-0.10;99.90;;;;;;4170889;28;20754;-48
2021/01/29 08:53:12;;;;;;;25.23;12.17;;;0.00;99.90;;;;;;4173197;28;20271;-45
2021/01/29 08:55:41;;;;;;;32.53;13.67;;;0.00;99.90;;;;;;4170285;28;20352;-46
2021/01/29 08:57:58;;;;;;;27.97;12.80;;;-0.10;99.90;;;;;;4172089;28;20359;-44
2021/01/29 09:00:00;;;;;;;28.47;13.67;;;-0.10;99.90;;;;;;4170365;28;20665;-49
2021/01/29 09:02:22;;;;;;;27.20;12.53;;;0.00;99.90;;;;;;4172528;28;20274;-46
2021/01/29 09:04:37;;;;;;;29.60;13.33;;;0.00;99.90;;;;;;4173022;28;20328;-45
2021/01/29 09:06:41;;;;;;;27.63;12.70;;;0.10;99.90;;;;;;4175333;28;20274;-42
2021/01/29 09:08:43;;;;;;;28.43;13.23;;;0.10;99.90;;;;;;4173512;28;20270;-50
2021/01/29 09:10:50;;;;;;;30.63;14.50;;;0.20;99.90;;;;;;4175280;28;20320;-45
2021/01/29 09:13:07;;;;;;;34.17;16.97;;;0.20;99.90;;;;;;4173459;28;20751;-53
2021/01/29 09:15:24;;;;;;;28.27;12.60;;;0.30;99.90;;;;;;4175133;28;20669;-48
2021/01/29 09:17:47;;;;;;;38.23;13.97;;;0.40;99.90;;;;;;4172931;28;20343;-46
2021/01/29 09:20:00;;;;;;;29.80;13.83;;;0.50;99.90;;;;;;4174988;28;20709;-55
2021/01/29 09:22:26;;;;;;;31.67;13.10;;;0.50;99.90;;;;;;4174088;28;20339;-49
2021/01/29 09:24:55;;;;;;;26.13;13.53;;;0.60;99.90;;;;;;4174209;28;21177;-50
2021/01/29 09:27:05;;;;;;;24.97;13.03;;;0.60;99.90;;;;;;4174594;28;20316;-47
2021/01/29 09:29:22;;;;;;;28.17;11.32;;;0.70;99.90;;;;;;4173315;28;20278;-50
2021/01/29 09:31:29;;;;;;;32.47;13.57;;;0.70;99.90;;;;;;4174269;28;20037;-47
2021/01/29 09:33:39;;;;;;;39.20;13.73;;;0.80;99.90;;;;;;4173788;28;20270;-49
2021/01/29 09:35:49;;;;;;;28.02;12.63;;;0.80;99.90;;;;;;4174417;28;20328;-45
2021/01/29 09:37:53;;;;;;;27.45;12.82;;;0.80;99.90;;;;;;4172858;28;20037;-47
2021/01/29 09:39:54;;;;;;;29.23;13.23;;;0.90;99.90;;;;;;4174195;28;20707;-49
2021/01/29 09:42:04;;;;;;;27.40;12.67;;;0.80;99.90;;;;;;4174460;28;20266;-47
2021/01/29 09:44:26;;;;;;;34.77;13.37;;;0.80;99.90;;;;;;4174154;28;20784;-50
2021/01/29 09:46:31;;;;;;;34.70;13.93;;;0.90;99.90;;;;;;4173046;28;20725;-48
2021/01/29 09:48:35;;;;;;;31.90;13.57;;;1.00;99.90;;;;;;4174248;28;20630;-52
2021/01/29 09:50:38;;;;;;;23.97;10.80;;;1.10;99.90;;;;;;4173668;28;20783;-45
2021/01/29 09:53:04;;;;;;;22.60;10.60;;;1.30;99.90;;;;;;4173037;28;20274;-46
2021/01/29 09:55:18;;;;;;;24.63;11.07;;;1.40;99.90;;;;;;4172672;28;20251;-46
2021/01/29 09:57:47;;;;;;;23.67;11.57;;;1.50;99.90;;;;;;4174037;28;20302;-51
2021/01/29 09:59:56;;;;;;;19.00;11.43;;;1.50;99.90;;;;;;4171953;28;20300;-49
2021/01/29 10:02:29;;;;;;;21.63;10.77;;;1.50;99.90;;;;;;4174390;28;20860;-45
2021/01/29 10:04:56;;;;;;;22.83;11.80;;;1.50;99.90;;;;;;4164409;28;20802;-43
2021/01/29 10:07:03;;;;;;;23.80;11.20;;;1.60;99.90;;;;;;4174505;28;20808;-49
2021/01/29 10:09:14;;;;;;;22.33;10.67;;;1.80;99.90;;;;;;4172548;28;20339;-49
2021/01/29 10:11:28;;;;;;;21.17;11.03;;;1.80;99.90;;;;;;4174573;28;20726;-51
2021/01/29 10:13:36;;;;;;;27.23;12.20;;;1.70;99.90;;;;;;4172390;28;20308;-48
2021/01/29 10:15:39;;;;;;;22.93;11.77;;;1.60;99.90;;;;;;4173881;28;20266;-47
2021/01/29 10:17:54;;;;;;;21.70;10.93;;;1.60;99.90;;;;;;4172236;28;20836;-48
2021/01/29 10:20:03;;;;;;;21.50;11.63;;;1.60;99.90;;;;;;4174450;28;20266;-50
2021/01/29 10:22:34;;;;;;;19.47;10.43;;;1.60;99.90;;;;;;4172035;28;20765;-46
2021/01/29 10:24:49;;;;;;;22.50;12.57;;;1.50;99.90;;;;;;4172499;28;20286;-47
2021/01/29 10:26:58;;;;;;;25.07;12.13;;;1.50;99.90;;;;;;4172254;28;20766;-51
2021/01/29 10:28:59;;;;;;;39.43;13.50;;;1.50;99.90;;;;;;4174061;28;20351;-51
2021/01/29 10:31:08;;;;;;;24.63;13.03;;;1.60;99.90;;;;;;4172219;28;20328;-48
2021/01/29 10:33:30;;;;;;;23.73;12.50;;;1.60;99.90;;;;;;4174576;28;20270;-50
2021/01/29 10:36:03;;;;;;;24.10;12.10;;;1.60;99.90;;;;;;4172253;28;21363;-47
2021/01/29 10:38:19;;;;;;;30.27;13.50;;;1.50;99.90;;;;;;4172684;28;20286;-50
2021/01/29 10:40:45;;;;;;;25.27;12.47;;;1.60;99.90;;;;;;4173396;28;20274;-52
2021/01/29 10:42:52;;;;;;;27.90;13.50;;;1.50;99.90;;;;;;4172490;28;20351;-45
2021/01/29 10:44:55;;;;;;;30.63;14.97;;;1.60;99.90;;;;;;4173243;28;20258;-45
2021/01/29 10:47:07;;;;;;;28.93;13.57;;;1.70;99.90;;;;;;4172204;28;20270;-49
2021/01/29 10:49:33;;;;;;;24.83;13.73;;;1.90;99.90;;;;;;4173055;28;20271;-51
2021/01/29 10:51:47;;;;;;;26.30;13.00;;;1.80;99.90;;;;;;4172030;28;20266;-43
2021/01/29 10:53:56;;;;;;;26.53;13.13;;;1.80;99.90;;;;;;4173389;28;20316;-45
2021/01/29 10:56:11;;;;;;;28.97;13.53;;;1.70;99.90;;;;;;4171956;28;20612;-46
2021/01/29 10:58:36;;;;;;;26.13;13.33;;;1.60;99.90;;;;;;4172976;28;20490;-50
2021/01/29 11:00:40;;;;;;;32.53;14.53;;;1.60;99.90;;;;;;4171239;28;20262;-45
2021/01/29 11:02:47;;;;;;;29.67;15.07;;;1.60;99.90;;;;;;4173496;28;20785;-48
2021/01/29 11:04:58;;;;;;;25.97;13.13;;;1.60;99.90;;;;;;4171293;28;20331;-48
2021/01/29 11:07:05;;;;;;;25.42;13.23;;;1.70;99.90;;;;;;4172636;28;20274;-47
2021/01/29 11:09:15;;;;;;;27.23;14.13;;;1.80;99.90;;;;;;4171378;28;20496;-47
2021/01/29 11:11:28;;;;;;;28.80;13.52;;;1.80;99.90;;;;;;4173455;28;20262;-48
2021/01/29 11:13:53;;;;;;;30.00;13.43;;;1.70;99.90;;;;;;4171014;28;20025;-45
2021/01/29 11:18:13;;;;;;;;;;;1.80;99.90;;;;;;4081161;23;20320;-47
2021/01/29 11:20:22;;;;;;;27.63;12.17;;;1.80;99.90;;;;;;4107290;28;20022;-48
2021/01/29 11:22:33;;;;;;;23.47;12.10;;;1.80;99.90;;;;;;4107952;28;20300;-50
2021/01/29 11:25:16;;;;;;;27.13;13.75;;;1.90;99.90;;;;;;4106582;28;20684;-47
2021/01/29 11:27:28;;;;;;;25.33;11.37;;;1.90;99.90;;;;;;4107701;28;20039;-47